Current Conditions
Partly Cloudy
Conditions



Pressure
1007.92 (hPa) - 29.76 (inHG)
Visibility

10.0 (km) - 6.2 (miles)
Temperature
22  °C
Temperature
16  °C
Dewpoint
69  %
 Humidity
Wind Speed
10  km/h
5  kts
6  mph
2.7  m/s
Wind Direction
N
45°
E
90°
135°
S
180°
225°
W
270°
315°
 280°

Due West
Airport Data
LEBL
Barcelona International Airport
Metar :LEBL 210500Z 28005KT 9999 FEW020 22/16 Q1008 NOSIG
Mon 21st June 07:00 am
Raw Metar Info
Raw METAR is the most common format in the world for the transmission of observational weather data. It is highly standardized through the International Civil Aviation Organization (ICAO), which allows it to be understood throughout most of the world.
API Info
Data Provided by
https://www.checkwx.com/weather/LEBL

Aviation Weather providing METAR, TAF, AIRMET, SIGMET and OUTLOOK Weather Reports
© Info
CSS/SVG/PHP scripts were developed by weather34.com for use in the weather34 template © 2015-2021

Guide Info provided by Metar-Wikipedia